createdAt,value
2018-11-20T00:02:56.325Z,5.33
2018-11-20T00:08:09.842Z,5.67
2018-11-20T00:13:17.294Z,6.30
2018-11-20T00:18:26.005Z,4.47
2018-11-20T00:25:41.582Z,4.83
2018-11-20T00:30:49.045Z,6.17
2018-11-20T00:35:58.509Z,4.20
2018-11-20T00:41:07.117Z,5.53
2018-11-20T00:46:19.589Z,4.70
2018-11-20T00:51:28.193Z,5.42
2018-11-20T00:56:40.133Z,5.22
2018-11-20T01:01:53.695Z,4.53
2018-11-20T01:07:07.190Z,6.75
2018-11-20T01:13:16.734Z,5.67
2018-11-20T01:19:24.125Z,4.30
2018-11-20T01:24:32.549Z,4.95
2018-11-20T01:29:40.069Z,4.97
2018-11-20T01:34:51.568Z,7.45
2018-11-20T01:40:00.254Z,7.93
2018-11-20T01:45:09.530Z,5.70
2018-11-20T01:50:36.149Z,7.87
2018-11-20T01:55:45.615Z,5.83
2018-11-20T02:01:30.826Z,5.33
2018-11-20T02:06:39.286Z,5.85
2018-11-20T02:11:56.862Z,4.92
2018-11-20T02:17:09.078Z,5.37
2018-11-20T02:24:22.742Z,6.55
2018-11-20T02:30:29.172Z,5.62
2018-11-20T02:35:43.505Z,5.70
2018-11-20T02:40:54.834Z,6.70
2018-11-20T02:46:12.597Z,5.60
2018-11-20T02:51:23.179Z,4.78
2018-11-20T02:56:31.919Z,5.85
2018-11-20T03:01:40.535Z,5.87
2018-11-20T03:06:55.084Z,6.45
2018-11-20T03:12:03.573Z,5.47
2018-11-20T03:17:12.299Z,5.65
2018-11-20T03:22:21.018Z,6.22
2018-11-20T03:27:33.465Z,5.70
2018-11-20T03:32:42.062Z,6.23
2018-11-20T03:39:54.382Z,5.20
2018-11-20T03:47:07.731Z,5.30
2018-11-20T03:52:20.173Z,5.30
2018-11-20T03:57:27.647Z,5.37
2018-11-20T04:02:36.228Z,4.22
2018-11-20T04:07:44.925Z,5.00
2018-11-20T04:12:55.429Z,4.90
2018-11-20T04:18:04.109Z,5.28
2018-11-20T04:23:14.570Z,4.80
2018-11-20T04:28:27.057Z,5.40
2018-11-20T04:33:40.826Z,4.90
2018-11-20T04:38:50.133Z,7.90
2018-11-20T04:44:32.298Z,4.80
2018-11-20T04:49:46.707Z,5.53
2018-11-20T04:54:57.922Z,7.42
2018-11-20T05:00:06.664Z,5.93
2018-11-20T05:05:14.954Z,7.45
2018-11-20T05:10:30.548Z,5.87
2018-11-20T05:15:40.029Z,5.53
2018-11-20T05:22:55.637Z,5.33
2018-11-20T05:28:04.438Z,6.40
2018-11-20T05:33:13.882Z,6.33
2018-11-20T05:38:57.710Z,5.80
2018-11-20T05:44:06.230Z,5.27
2018-11-20T05:49:13.670Z,5.83
2018-11-20T05:54:55.867Z,5.87
2018-11-20T06:00:10.413Z,6.23
2018-11-20T06:05:51.453Z,5.53
2018-11-20T06:11:32.588Z,6.43
2018-11-20T06:16:56.318Z,5.90
2018-11-20T06:22:04.864Z,6.77
2018-11-20T06:27:19.418Z,6.03
2018-11-20T06:32:45.022Z,5.97
2018-11-20T06:37:53.670Z,6.37
2018-11-20T06:43:06.214Z,6.50
2018-11-20T06:48:13.675Z,6.27
2018-11-20T06:55:28.310Z,7.40
2018-11-20T07:00:35.742Z,5.90
2018-11-20T07:05:44.297Z,6.72
2018-11-20T07:10:52.970Z,6.37
2018-11-20T07:16:35.133Z,6.67
2018-11-20T07:21:43.534Z,8.33
2018-11-20T07:28:56.073Z,6.60
2018-11-20T07:36:08.661Z,6.72
2018-11-20T07:41:16.041Z,8.05
2018-11-20T07:47:23.313Z,6.22
2018-11-20T07:52:32.734Z,7.20
2018-11-20T07:57:41.234Z,6.70
2018-11-20T08:02:51.597Z,8.70
2018-11-20T08:08:59.099Z,9.05
2018-11-20T08:14:09.610Z,8.43
2018-11-20T08:19:18.167Z,7.85
2018-11-20T08:24:28.649Z,9.45
2018-11-20T08:29:37.356Z,8.88
2018-11-20T08:34:44.802Z,7.67
2018-11-20T08:42:00.256Z,7.20
2018-11-20T08:47:08.709Z,5.87
2018-11-20T08:52:17.127Z,8.73
2018-11-20T08:57:25.666Z,6.90
2018-11-20T09:02:49.446Z,7.10
2018-11-20T09:07:56.778Z,8.38
2018-11-20T09:13:04.238Z,8.45
2018-11-20T09:18:13.585Z,8.17
2018-11-20T09:23:22.003Z,6.83
2018-11-20T09:28:32.330Z,7.90
2018-11-20T09:33:41.643Z,6.62
2018-11-20T09:38:50.367Z,7.42
2018-11-20T09:44:04.606Z,7.12
2018-11-20T09:49:21.230Z,7.00
2018-11-20T09:56:38.625Z,7.97
2018-11-20T10:01:46.904Z,6.58
2018-11-20T10:06:55.518Z,8.50
2018-11-20T10:12:06.986Z,7.90
2018-11-20T10:17:20.562Z,6.67
2018-11-20T10:22:29.106Z,10.25
2018-11-20T10:28:36.598Z,5.90
2018-11-20T10:34:49.032Z,6.78
2018-11-20T10:42:00.138Z,6.83
2018-11-20T10:48:07.412Z,14.87
2018-11-20T10:53:16.126Z,21.37
2018-11-20T10:58:24.845Z,18.17
2018-11-20T11:03:33.498Z,16.77
2018-11-20T11:08:42.118Z,16.80
2018-11-20T11:13:50.806Z,14.17
2018-11-20T11:18:59.555Z,13.43
2018-11-20T11:24:09.996Z,15.97
2018-11-20T11:29:18.860Z,11.87
2018-11-20T11:34:26.527Z,12.13
2018-11-20T11:39:34.987Z,11.90
2018-11-20T11:45:19.041Z,11.13
2018-11-20T11:50:27.623Z,9.87
2018-11-20T11:55:41.070Z,11.63
2018-11-20T12:00:53.640Z,12.37
2018-11-20T14:32:38.385Z,10.58
2018-11-20T14:38:03.302Z,10.17
2018-11-20T14:43:31.579Z,11.37
2018-11-20T14:48:53.978Z,8.68
2018-11-20T14:54:13.240Z,9.78
2018-11-20T14:59:24.744Z,14.40
2018-11-20T15:04:47.140Z,9.53
2018-11-20T15:10:01.575Z,9.40
2018-11-20T15:15:46.229Z,10.98
2018-11-20T15:21:07.189Z,9.75
2018-11-20T15:26:28.156Z,9.10
2018-11-20T15:31:52.014Z,9.53
2018-11-20T15:37:13.220Z,10.15
2018-11-20T15:42:24.218Z,12.68
2018-11-20T15:47:49.598Z,9.70
2018-11-20T15:53:14.669Z,8.80
2018-11-20T15:58:39.937Z,9.73
2018-11-20T16:04:01.176Z,7.93
2018-11-20T16:09:28.549Z,10.27
2018-11-20T16:14:49.744Z,8.03
2018-11-20T16:20:12.138Z,9.00
2018-11-20T16:25:40.582Z,8.97
2018-11-20T16:31:06.937Z,8.50
2018-11-20T16:36:26.025Z,7.95
2018-11-20T16:41:57.573Z,10.73
2018-11-20T16:47:25.843Z,9.93
2018-11-20T16:52:51.953Z,9.68
2018-11-20T16:58:27.399Z,9.65
2018-11-20T17:03:47.612Z,11.20
2018-11-20T17:09:20.830Z,8.50
2018-11-20T17:14:47.133Z,8.70
2018-11-20T17:20:12.202Z,7.40
2018-11-20T17:25:33.328Z,8.50
2018-11-20T17:31:01.616Z,9.07
2018-11-20T17:36:22.845Z,12.78
2018-11-20T17:41:43.984Z,7.77
2018-11-20T17:46:58.241Z,9.35
2018-11-20T17:52:25.544Z,8.30
2018-11-20T17:57:46.802Z,12.50
2018-11-20T18:03:18.200Z,7.20
2018-11-20T18:08:39.016Z,8.13
2018-11-20T18:13:52.383Z,7.33
2018-11-20T18:19:13.555Z,8.50
2018-11-20T18:24:23.989Z,12.63
2018-11-20T18:29:55.609Z,10.93
2018-11-20T18:35:16.688Z,9.90
2018-11-20T18:40:43.460Z,7.07
2018-11-20T18:46:11.594Z,9.53
2018-11-20T18:51:42.886Z,11.27
2018-11-20T18:57:00.255Z,8.87
2018-11-20T19:02:21.507Z,7.03
2018-11-20T19:07:42.508Z,8.83
2018-11-20T19:13:08.985Z,11.35
2018-11-20T19:18:31.405Z,8.80
2018-11-20T19:23:52.731Z,8.05
2018-11-20T19:29:18.282Z,9.20
2018-11-20T19:34:39.593Z,9.00
2018-11-20T19:40:14.261Z,8.27
2018-11-20T19:45:48.809Z,9.97
2018-11-20T19:51:11.549Z,6.78
2018-11-20T19:56:36.698Z,9.95
2018-11-20T20:01:59.129Z,9.30
2018-11-20T20:07:20.693Z,6.25
2018-11-20T20:12:42.191Z,8.28
2018-11-20T20:18:13.205Z,8.35
2018-11-20T20:23:38.601Z,9.98
2018-11-20T20:29:12.071Z,10.80
2018-11-20T20:34:33.065Z,11.73
2018-11-20T20:39:50.611Z,7.47
2018-11-20T20:45:11.709Z,9.00
2018-11-20T20:50:32.284Z,10.50
2018-11-20T20:55:54.718Z,7.70
2018-11-20T21:01:16.073Z,9.50
2018-11-20T21:06:33.806Z,7.70
2018-11-20T21:11:56.346Z,10.18
2018-11-20T21:17:31.134Z,8.63
2018-11-20T21:23:06.109Z,8.18
2018-11-20T21:28:43.725Z,8.17
2018-11-20T21:33:57.478Z,8.60
2018-11-20T21:39:18.771Z,8.45
2018-11-20T21:44:47.676Z,7.42
2018-11-20T21:50:06.694Z,7.47
2018-11-20T21:55:20.116Z,8.53
2018-11-20T22:00:56.030Z,8.40
2018-11-20T22:06:15.884Z,8.05
2018-11-20T22:11:36.933Z,7.42
2018-11-20T22:16:59.350Z,7.93
2018-11-20T22:22:31.053Z,7.15
2018-11-20T22:27:52.672Z,6.85
2018-11-20T22:33:17.995Z,8.87
2018-11-20T22:38:35.454Z,6.08
2018-11-20T22:44:00.841Z,7.37
2018-11-20T22:49:41.534Z,6.90
2018-11-20T22:55:19.354Z,8.68
2018-11-20T23:00:40.910Z,6.57
2018-11-20T23:05:59.412Z,7.30
2018-11-20T23:11:02.733Z,5.45
2018-11-20T23:16:06.458Z,8.23
2018-11-20T23:21:09.773Z,6.65
2018-11-20T23:26:13.189Z,7.35
2018-11-20T23:31:16.477Z,6.20
2018-11-20T23:36:19.760Z,6.78
2018-11-20T23:41:23.050Z,7.10
2018-11-20T23:46:26.335Z,7.03
2018-11-20T23:51:29.811Z,6.17
2018-11-20T23:56:33.115Z,5.03
